createdAt,value
2024-05-09T00:02:08.043Z,61.62
2024-05-09T00:04:34.713Z,58.48
2024-05-09T00:07:01.795Z,57.00
2024-05-09T00:09:28.280Z,57.43
2024-05-09T00:11:54.809Z,58.58
2024-05-09T00:14:21.383Z,59.54
2024-05-09T00:16:49.414Z,60.32
2024-05-09T00:19:16.079Z,62.91
2024-05-09T00:21:43.403Z,64.84
2024-05-09T00:24:10.131Z,62.94
2024-05-09T00:26:36.585Z,61.13
2024-05-09T00:29:03.209Z,58.27
2024-05-09T00:31:29.800Z,57.25
2024-05-09T00:33:56.584Z,57.84
2024-05-09T00:36:26.225Z,58.87
2024-05-09T00:38:52.846Z,59.34
2024-05-09T00:41:20.036Z,60.00
2024-05-09T00:43:46.811Z,63.39
2024-05-09T00:46:13.636Z,65.96
2024-05-09T00:48:40.983Z,64.66
2024-05-09T00:51:08.023Z,62.39
2024-05-09T00:53:34.952Z,60.70
2024-05-09T00:56:01.866Z,58.09
2024-05-09T00:58:30.334Z,57.02
2024-05-09T01:01:00.896Z,57.82
2024-05-09T01:03:27.791Z,58.94
2024-05-09T01:05:54.679Z,60.21
2024-05-09T01:08:21.594Z,63.53
2024-05-09T01:10:48.876Z,65.83
2024-05-09T01:13:15.674Z,64.25
2024-05-09T01:15:43.002Z,62.39
2024-05-09T01:18:12.211Z,61.00
2024-05-09T01:20:43.120Z,58.86
2024-05-09T01:23:14.658Z,57.72
2024-05-09T01:25:46.565Z,58.93
2024-05-09T01:28:13.942Z,60.20
2024-05-09T01:30:40.480Z,63.72
2024-05-09T01:33:09.623Z,65.28
2024-05-09T01:35:40.379Z,64.10
2024-05-09T01:38:07.769Z,62.04
2024-05-09T01:40:38.705Z,60.92
2024-05-09T01:43:11.543Z,60.27
2024-05-09T01:45:39.411Z,57.77
2024-05-09T01:48:07.657Z,57.47
2024-05-09T01:50:39.405Z,58.79
2024-05-09T01:53:10.103Z,59.80
2024-05-09T01:55:37.010Z,63.30
2024-05-09T01:58:03.663Z,65.73
2024-05-09T02:00:38.345Z,64.42
2024-05-09T02:03:14.972Z,62.86
2024-05-09T02:05:47.985Z,61.93
2024-05-09T02:08:18.150Z,61.20
2024-05-09T02:10:46.459Z,58.97
2024-05-09T02:13:13.236Z,58.09
2024-05-09T02:19:09.728Z,59.84
2024-05-09T02:21:36.793Z,63.79
2024-05-09T02:24:03.517Z,66.56
2024-05-09T02:26:30.086Z,65.53
2024-05-09T02:28:56.740Z,63.98
2024-05-09T02:31:23.379Z,62.55
2024-05-09T02:33:50.249Z,61.79
2024-05-09T02:36:17.272Z,60.98
2024-05-09T02:38:43.855Z,59.92
2024-05-09T02:41:10.567Z,58.36
2024-05-09T02:43:37.233Z,58.37
2024-05-09T02:46:03.838Z,59.93
2024-05-09T02:48:30.487Z,63.93
2024-05-09T02:50:57.247Z,65.50
2024-05-09T02:53:23.900Z,64.62
2024-05-09T02:55:50.488Z,63.16
2024-05-09T02:58:16.914Z,62.02
2024-05-09T03:00:43.446Z,61.03
2024-05-09T03:03:13.384Z,60.16
2024-05-09T03:05:42.981Z,58.48
2024-05-09T03:08:10.009Z,57.84
2024-05-09T03:10:38.619Z,59.01
2024-05-09T03:13:11.886Z,60.22
2024-05-09T03:15:39.315Z,64.14
2024-05-09T03:18:06.373Z,66.04
2024-05-09T03:20:35.510Z,64.52
2024-05-09T03:23:03.941Z,63.25
2024-05-09T03:25:30.934Z,63.41
2024-05-09T03:27:57.483Z,61.20
2024-05-09T03:30:36.107Z,60.49
2024-05-09T03:33:12.227Z,60.34
2024-05-09T03:35:39.791Z,58.29
2024-05-09T03:38:06.303Z,57.78
2024-05-09T03:40:32.744Z,59.23
2024-05-09T03:42:59.313Z,60.66
2024-05-09T03:45:25.811Z,63.98
2024-05-09T03:47:52.959Z,65.88
2024-05-09T03:50:26.366Z,64.14
2024-05-09T03:53:00.528Z,62.73
2024-05-09T03:55:27.655Z,61.64
2024-05-09T03:57:54.176Z,60.53
2024-05-09T04:00:30.442Z,58.14
2024-05-09T04:03:02.852Z,57.45
2024-05-09T04:05:30.641Z,58.90
2024-05-09T04:07:57.763Z,59.95
2024-05-09T04:10:31.325Z,63.42
2024-05-09T04:13:00.627Z,65.16
2024-05-09T04:15:27.205Z,63.55
2024-05-09T04:17:53.866Z,61.99
2024-05-09T04:20:29.394Z,61.02
2024-05-09T04:23:04.677Z,60.44
2024-05-09T04:25:31.996Z,57.99
2024-05-09T04:27:58.513Z,57.49
2024-05-09T04:30:34.506Z,58.68
2024-05-09T04:33:06.170Z,60.40
2024-05-09T04:35:33.299Z,61.64
2024-05-09T04:38:00.368Z,63.26
2024-05-09T04:40:33.145Z,64.66
2024-05-09T04:43:03.574Z,61.97
2024-05-09T04:45:30.294Z,57.12
2024-05-09T04:47:57.145Z,56.33
2024-05-09T04:50:33.201Z,56.85
2024-05-09T04:53:04.003Z,56.87
2024-05-09T04:55:31.063Z,57.07
2024-05-09T04:57:57.682Z,58.18
2024-05-09T05:00:32.486Z,59.11
2024-05-09T05:03:13.886Z,58.89
2024-05-09T05:05:44.879Z,58.55
2024-05-09T05:08:17.719Z,58.64
2024-05-09T05:10:46.781Z,58.14
2024-05-09T05:13:20.201Z,57.29
2024-05-09T05:15:57.260Z,57.50
2024-05-09T05:18:25.641Z,56.27
2024-05-09T05:20:53.053Z,56.73
2024-05-09T05:23:21.031Z,56.51
2024-05-09T05:25:49.618Z,56.44
2024-05-09T05:28:17.174Z,55.97
2024-05-09T05:30:44.818Z,55.93
2024-05-09T05:33:15.797Z,54.21
2024-05-09T05:35:42.858Z,54.52
2024-05-09T05:38:10.596Z,54.81
2024-05-09T05:40:38.602Z,55.78
2024-05-09T05:43:10.917Z,55.68
2024-05-09T05:45:37.930Z,54.42
2024-05-09T05:48:06.260Z,54.64
2024-05-09T05:50:36.559Z,52.99
2024-05-09T05:53:07.688Z,53.16
2024-05-09T05:55:35.912Z,52.80
2024-05-09T05:58:02.912Z,51.51
2024-05-09T06:00:36.983Z,51.67
2024-05-09T06:03:06.111Z,51.12
2024-05-09T06:05:33.015Z,51.49
2024-05-09T06:07:59.744Z,50.84
2024-05-09T06:10:34.810Z,50.82
2024-05-09T06:13:05.419Z,49.84
2024-05-09T06:15:31.900Z,49.59
2024-05-09T06:17:58.766Z,50.12
2024-05-09T06:20:34.574Z,48.62
2024-05-09T06:23:04.895Z,48.01
2024-05-09T06:25:31.784Z,49.26
2024-05-09T06:27:59.792Z,50.19
2024-05-09T06:30:35.108Z,50.25
2024-05-09T06:33:07.118Z,49.03
2024-05-09T06:35:34.230Z,49.14
2024-05-09T06:38:01.156Z,49.78
2024-05-09T06:40:36.306Z,49.43
2024-05-09T06:43:16.955Z,49.18
2024-05-09T06:45:46.884Z,49.99
2024-05-09T06:48:14.234Z,49.85
2024-05-09T06:50:41.385Z,44.62
2024-05-09T06:53:08.895Z,39.51
2024-05-09T06:55:36.944Z,35.37
2024-05-09T06:58:05.627Z,31.46
2024-05-09T07:00:38.611Z,29.31
2024-05-09T07:03:08.765Z,26.60
2024-05-09T07:05:35.799Z,24.91
2024-05-09T07:08:03.998Z,23.90
2024-05-09T07:10:34.879Z,22.45
2024-05-09T07:13:02.633Z,21.03
2024-05-09T07:15:29.203Z,18.21
2024-05-09T07:17:55.826Z,18.47
2024-05-09T07:20:32.326Z,17.77
2024-05-09T07:23:02.939Z,17.34
2024-05-09T07:25:29.677Z,15.61
2024-05-09T07:27:56.362Z,14.18
2024-05-09T07:30:27.830Z,14.11
2024-05-09T07:33:00.407Z,13.62
2024-05-09T07:35:27.477Z,13.53
2024-05-09T07:37:54.413Z,13.58
2024-05-09T07:40:31.580Z,13.01
2024-05-09T07:43:06.524Z,13.13
2024-05-09T07:52:22.982Z,12.39
2024-05-09T07:53:39.128Z,11.49
2024-05-09T07:56:09.974Z,11.52
2024-05-09T07:58:37.906Z,10.88
2024-05-09T08:01:04.931Z,10.70
2024-05-09T08:03:34.278Z,10.82
2024-05-09T08:06:01.231Z,10.70
2024-05-09T08:08:27.821Z,11.04
2024-05-09T08:10:54.431Z,11.15
2024-05-09T08:13:21.192Z,10.27
2024-05-09T08:15:48.540Z,9.71
2024-05-09T08:18:15.309Z,9.79
2024-05-09T08:20:42.067Z,9.88
2024-05-09T08:23:08.812Z,10.50
2024-05-09T08:25:36.169Z,10.17
2024-05-09T08:28:04.391Z,10.47
2024-05-09T08:30:36.514Z,9.67
2024-05-09T08:33:06.689Z,9.91
2024-05-09T08:35:35.098Z,9.25
2024-05-09T08:38:06.443Z,9.20
2024-05-09T08:40:36.205Z,8.76
2024-05-09T08:43:09.010Z,9.34
2024-05-09T08:45:38.483Z,9.05
2024-05-09T08:48:08.021Z,8.63
2024-05-09T08:50:39.102Z,9.22
2024-05-09T08:53:09.383Z,8.81
2024-05-09T08:55:40.638Z,8.84
2024-05-09T08:58:16.817Z,9.58
2024-05-09T09:00:44.566Z,9.19
2024-05-09T09:03:15.856Z,8.27
2024-05-09T09:05:50.980Z,8.24
2024-05-09T09:08:18.535Z,7.11
2024-05-09T09:10:47.404Z,7.75
2024-05-09T09:13:14.327Z,8.40
2024-05-09T09:15:48.359Z,7.61
2024-05-09T09:18:16.356Z,8.18
2024-05-09T09:20:44.165Z,8.09
2024-05-09T09:23:10.877Z,7.94
2024-05-09T09:25:40.946Z,8.09
2024-05-09T09:28:08.139Z,7.43
2024-05-09T09:30:38.424Z,7.01
2024-05-09T09:33:13.966Z,7.36
2024-05-09T09:35:41.947Z,7.55
2024-05-09T09:38:09.664Z,7.77
2024-05-09T09:40:42.859Z,7.65
2024-05-09T09:43:32.829Z,8.40
2024-05-09T09:46:01.828Z,8.36
2024-05-09T09:48:31.374Z,7.79
2024-05-09T09:50:59.302Z,7.15
2024-05-09T09:53:27.800Z,7.69
2024-05-09T09:55:56.022Z,8.19
2024-05-09T09:58:23.663Z,9.03
2024-05-09T10:00:50.516Z,10.13
2024-05-09T10:03:17.279Z,10.41
2024-05-09T10:05:46.978Z,10.65
2024-05-09T10:08:16.371Z,10.75
2024-05-09T10:10:47.039Z,10.38
2024-05-09T10:13:13.861Z,10.29
2024-05-09T10:15:47.994Z,10.91
2024-05-09T10:18:15.242Z,10.88
2024-05-09T10:20:46.327Z,10.55
2024-05-09T10:23:30.053Z,10.29
2024-05-09T10:26:01.783Z,9.60
2024-05-09T10:28:34.708Z,9.32
2024-05-09T10:31:15.046Z,9.91
2024-05-09T10:33:51.187Z,9.61
2024-05-09T10:36:19.660Z,9.64
2024-05-09T10:38:46.281Z,8.03
2024-05-09T10:41:12.953Z,7.63
2024-05-09T10:43:43.374Z,8.15
2024-05-09T10:46:10.752Z,8.59
2024-05-09T10:48:38.840Z,9.02
2024-05-09T10:51:05.701Z,9.71
2024-05-09T10:53:39.474Z,8.71
2024-05-09T10:56:06.097Z,8.99
2024-05-09T10:58:32.813Z,9.31
2024-05-09T11:01:00.683Z,10.84
2024-05-09T11:03:29.187Z,10.46
2024-05-09T11:05:57.197Z,10.13
2024-05-09T11:08:24.497Z,10.42
2024-05-09T11:10:53.207Z,10.68
2024-05-09T11:13:30.712Z,9.40
2024-05-09T11:15:58.383Z,9.32
2024-05-09T11:18:29.486Z,9.96
2024-05-09T11:20:58.865Z,10.12
2024-05-09T11:23:27.714Z,9.87
2024-05-09T11:25:55.651Z,11.13
2024-05-09T11:28:23.237Z,11.10
2024-05-09T11:30:50.596Z,10.89
2024-05-09T11:33:18.926Z,10.61
2024-05-09T11:35:46.760Z,10.53
2024-05-09T11:38:13.686Z,9.29
2024-05-09T11:40:41.541Z,9.69
2024-05-09T11:43:08.432Z,10.18
2024-05-09T11:45:35.048Z,10.07
2024-05-09T11:48:03.203Z,10.62
2024-05-09T11:50:34.865Z,10.70
2024-05-09T11:53:02.509Z,11.14
2024-05-09T11:55:29.081Z,9.79
2024-05-09T11:57:56.451Z,10.17
2024-05-09T12:00:33.710Z,10.34
2024-05-09T12:03:05.121Z,10.67
2024-05-09T12:05:33.766Z,11.25
2024-05-09T12:08:01.299Z,11.47
2024-05-09T12:10:33.312Z,11.13
2024-05-09T12:13:04.696Z,10.64
2024-05-09T12:15:33.685Z,11.30
2024-05-09T12:18:02.942Z,11.66
2024-05-09T12:20:36.643Z,11.92
2024-05-09T12:23:06.231Z,13.42
2024-05-09T12:25:32.985Z,13.17
2024-05-09T12:28:00.025Z,13.10
2024-05-09T12:30:35.464Z,13.82
2024-05-09T12:33:06.479Z,13.63
2024-05-09T12:35:33.312Z,13.90
2024-05-09T12:38:00.018Z,14.45
2024-05-09T12:40:35.323Z,14.77
2024-05-09T12:43:06.304Z,15.26
2024-05-09T12:45:33.015Z,15.36
2024-05-09T12:47:59.975Z,14.88
2024-05-09T12:50:32.414Z,14.91
2024-05-09T12:53:01.700Z,15.16
2024-05-09T12:55:31.793Z,15.00
2024-05-09T12:58:04.480Z,14.79
2024-05-09T13:00:34.074Z,15.26
2024-05-09T13:03:01.542Z,15.69
2024-05-09T13:05:28.583Z,15.50
2024-05-09T13:07:56.716Z,16.34
2024-05-09T13:10:31.036Z,16.12
2024-05-09T13:13:00.239Z,16.71
2024-05-09T13:15:27.282Z,16.25
2024-05-09T13:17:55.337Z,16.22
2024-05-09T13:20:29.539Z,16.62
2024-05-09T13:23:02.044Z,16.85
2024-05-09T13:25:29.619Z,16.56
2024-05-09T13:27:57.462Z,16.44
2024-05-09T13:30:33.963Z,16.78
2024-05-09T13:33:06.552Z,17.37
2024-05-09T13:35:34.893Z,17.46
2024-05-09T13:38:02.463Z,17.91
2024-05-09T13:40:33.730Z,18.18
2024-05-09T13:43:03.803Z,17.71
2024-05-09T13:45:30.580Z,17.68
2024-05-09T13:47:57.535Z,18.43
2024-05-09T13:50:33.052Z,18.87
2024-05-09T13:53:04.399Z,18.46
2024-05-09T13:55:31.041Z,18.69
2024-05-09T13:57:57.742Z,19.14
2024-05-09T14:02:53.973Z,20.80
2024-05-09T14:05:21.006Z,19.92
2024-05-09T14:07:47.756Z,20.91
2024-05-09T14:10:22.651Z,20.68
2024-05-09T14:12:52.626Z,20.87
2024-05-09T14:15:19.159Z,20.99
2024-05-09T14:17:46.076Z,21.20
2024-05-09T14:20:16.635Z,20.75
2024-05-09T14:22:49.766Z,21.14
2024-05-09T14:25:16.351Z,22.06
2024-05-09T14:27:43.364Z,22.64
2024-05-09T14:30:18.065Z,22.87
2024-05-09T14:32:52.358Z,23.32
2024-05-09T14:35:19.028Z,24.35
2024-05-09T14:37:45.675Z,24.71
2024-05-09T14:40:29.733Z,24.82
2024-05-09T14:43:03.118Z,25.64
2024-05-09T14:45:29.968Z,25.88
2024-05-09T14:47:56.983Z,25.76
2024-05-09T14:50:31.708Z,26.72
2024-05-09T14:53:01.881Z,27.46
2024-05-09T14:55:28.415Z,26.61
2024-05-09T14:57:55.260Z,27.14
2024-05-09T15:00:28.637Z,28.05
2024-05-09T15:03:00.042Z,28.81
2024-05-09T15:05:26.636Z,27.81
2024-05-09T15:07:53.204Z,28.08
2024-05-09T15:10:27.007Z,27.87
2024-05-09T15:13:00.592Z,27.23
2024-05-09T15:15:27.187Z,27.33
2024-05-09T15:17:54.786Z,28.24
2024-05-09T15:20:30.390Z,27.22
2024-05-09T15:23:01.153Z,27.81
2024-05-09T15:25:27.889Z,27.83
2024-05-09T15:27:54.722Z,28.31
2024-05-09T15:30:29.831Z,28.37
2024-05-09T15:32:58.967Z,29.28
2024-05-09T15:35:25.523Z,28.71
2024-05-09T15:37:52.109Z,29.10
2024-05-09T15:40:26.566Z,29.33
2024-05-09T15:43:02.323Z,29.38
2024-05-09T15:45:29.514Z,29.69
2024-05-09T15:47:57.042Z,30.64
2024-05-09T15:50:35.116Z,30.49
2024-05-09T15:53:06.251Z,30.06
2024-05-09T15:55:33.466Z,30.10
2024-05-09T15:58:01.451Z,30.35
2024-05-09T16:00:36.456Z,30.58
2024-05-09T16:03:06.849Z,29.72
2024-05-09T16:05:33.957Z,29.03
2024-05-09T16:08:00.785Z,29.74
2024-05-09T16:10:32.541Z,30.47
2024-05-09T16:13:01.461Z,30.72
2024-05-09T16:15:28.382Z,30.88
2024-05-09T16:17:57.420Z,30.49
2024-05-09T16:22:54.151Z,30.40
2024-05-09T16:25:20.657Z,30.57
2024-05-09T16:27:47.459Z,30.57
2024-05-09T16:30:21.309Z,31.18
2024-05-09T16:32:55.655Z,31.19
2024-05-09T16:35:22.441Z,32.15
2024-05-09T16:37:49.685Z,31.48
2024-05-09T16:40:25.268Z,32.17
2024-05-09T16:43:03.420Z,32.04
2024-05-09T16:45:30.055Z,32.44
2024-05-09T16:47:56.985Z,32.04
2024-05-09T16:57:48.424Z,32.41
2024-05-09T17:00:22.454Z,32.82
2024-05-09T17:02:57.893Z,33.06
2024-05-09T17:05:24.669Z,33.62
2024-05-09T17:07:51.411Z,33.53
2024-05-09T17:10:26.491Z,33.76
2024-05-09T17:12:58.767Z,33.82
2024-05-09T17:15:25.582Z,34.61
2024-05-09T17:17:52.405Z,35.00
2024-05-09T17:20:29.247Z,34.97
2024-05-09T17:23:01.482Z,35.23
2024-05-09T17:25:28.045Z,35.27
2024-05-09T17:27:54.746Z,34.98
2024-05-09T17:30:28.995Z,35.40
2024-05-09T17:33:01.651Z,34.92
2024-05-09T17:35:28.500Z,34.78
2024-05-09T17:37:55.164Z,35.11
2024-05-09T17:40:30.727Z,35.94
2024-05-09T17:43:01.420Z,35.97
2024-05-09T17:45:28.107Z,36.17
2024-05-09T17:47:55.176Z,36.75
2024-05-09T17:50:27.934Z,37.48
2024-05-09T17:53:01.535Z,38.26
2024-05-09T17:55:28.460Z,38.84
2024-05-09T17:57:55.230Z,39.53
2024-05-09T18:00:32.460Z,39.41
2024-05-09T18:03:04.855Z,39.50
2024-05-09T18:05:31.945Z,40.34
2024-05-09T18:07:58.610Z,41.29
2024-05-09T18:10:32.836Z,42.61
2024-05-09T18:13:05.072Z,42.39
2024-05-09T18:15:31.681Z,42.93
2024-05-09T18:17:58.472Z,43.79
2024-05-09T18:20:36.055Z,44.66
2024-05-09T18:23:08.248Z,45.00
2024-05-09T18:25:34.921Z,46.43
2024-05-09T18:28:03.101Z,46.51
2024-05-09T18:30:34.756Z,46.76
2024-05-09T18:33:04.940Z,47.81
2024-05-09T18:35:32.824Z,49.10
2024-05-09T18:37:59.447Z,49.76
2024-05-09T18:40:33.230Z,49.26
2024-05-09T18:43:03.878Z,49.44
2024-05-09T18:45:30.981Z,50.19
2024-05-09T18:47:58.059Z,51.24
2024-05-09T18:50:33.956Z,51.71
2024-05-09T18:53:05.921Z,52.03
2024-05-09T18:55:32.764Z,52.39
2024-05-09T18:57:59.562Z,52.85
2024-05-09T19:00:33.617Z,53.23
2024-05-09T19:03:04.666Z,53.28
2024-05-09T19:05:32.502Z,54.07
2024-05-09T19:07:59.458Z,54.06
2024-05-09T19:10:29.260Z,54.83
2024-05-09T19:13:00.923Z,55.27
2024-05-09T19:15:27.856Z,56.14
2024-05-09T19:17:54.408Z,56.93
2024-05-09T19:20:28.612Z,57.09
2024-05-09T19:23:00.177Z,57.17
2024-05-09T19:25:26.725Z,58.21
2024-05-09T19:27:53.213Z,58.73
2024-05-09T19:30:29.290Z,59.34
2024-05-09T19:33:03.574Z,62.69
2024-05-09T19:35:30.336Z,63.94
2024-05-09T19:37:57.084Z,61.96
2024-05-09T19:40:30.411Z,58.44
2024-05-09T19:42:59.587Z,55.97
2024-05-09T19:45:27.335Z,57.41
2024-05-09T19:47:55.196Z,57.60
2024-05-09T19:50:30.281Z,60.24
2024-05-09T19:53:03.245Z,63.46
2024-05-09T19:55:29.761Z,63.32
2024-05-09T19:57:56.301Z,61.10
2024-05-09T20:00:32.144Z,58.03
2024-05-09T20:03:02.390Z,56.43
2024-05-09T20:05:32.160Z,59.90
2024-05-09T20:07:58.900Z,60.77
2024-05-09T20:10:31.430Z,63.89
2024-05-09T20:13:00.277Z,63.46
2024-05-09T20:15:27.103Z,61.60
2024-05-09T20:17:54.491Z,58.51
2024-05-09T20:20:31.946Z,56.91
2024-05-09T20:23:03.579Z,57.30
2024-05-09T20:25:30.310Z,58.77
2024-05-09T20:27:56.944Z,59.50
2024-05-09T20:30:30.601Z,62.48
2024-05-09T20:32:59.961Z,64.58
2024-05-09T20:35:26.895Z,62.91
2024-05-09T20:37:53.785Z,61.27
2024-05-09T20:40:28.675Z,60.24
2024-05-09T20:42:59.511Z,57.34
2024-05-09T20:45:26.243Z,56.53
2024-05-09T20:47:53.166Z,57.52
2024-05-09T20:50:28.513Z,58.48
2024-05-09T20:53:02.996Z,59.58
2024-05-09T20:55:29.570Z,64.15
2024-05-09T20:57:56.246Z,66.06
2024-05-09T21:00:30.002Z,64.43
2024-05-09T21:03:05.294Z,62.92
2024-05-09T21:05:32.183Z,60.86
2024-05-09T21:07:58.881Z,58.41
2024-05-09T21:10:27.224Z,57.32
2024-05-09T21:12:56.408Z,58.04
2024-05-09T21:15:23.191Z,59.11
2024-05-09T21:17:49.717Z,62.37
2024-05-09T21:20:20.605Z,64.31
2024-05-09T21:22:50.865Z,63.02
2024-05-09T21:25:17.570Z,61.02
2024-05-09T21:27:44.270Z,58.44
2024-05-09T21:30:18.437Z,57.46
2024-05-09T21:32:50.426Z,58.44
2024-05-09T21:35:17.703Z,59.95
2024-05-09T21:37:44.405Z,63.45
2024-05-09T21:40:14.044Z,65.34
2024-05-09T21:42:48.440Z,64.07
2024-05-09T21:45:15.026Z,62.22
2024-05-09T21:47:42.054Z,61.22
2024-05-09T21:50:12.547Z,60.33
2024-05-09T21:52:45.243Z,58.33
2024-05-09T21:55:11.831Z,58.09
2024-05-09T21:57:38.569Z,59.39
2024-05-09T22:00:20.354Z,64.02
2024-05-09T22:02:51.713Z,65.71
2024-05-09T22:05:18.298Z,64.08
2024-05-09T22:07:44.990Z,62.54
2024-05-09T22:10:19.982Z,61.67
2024-05-09T22:12:52.621Z,61.17
2024-05-09T22:15:19.080Z,60.42
2024-05-09T22:17:45.664Z,58.83
2024-05-09T22:20:18.442Z,61.27
2024-05-09T22:22:54.212Z,63.53
2024-05-09T22:25:21.392Z,63.66
2024-05-09T22:27:48.077Z,62.47
2024-05-09T22:30:21.234Z,62.38
2024-05-09T22:32:53.666Z,61.91
2024-05-09T22:35:20.257Z,61.58
2024-05-09T22:37:46.719Z,61.31
2024-05-09T22:40:20.700Z,61.16
2024-05-09T22:42:55.188Z,60.79
2024-05-09T22:45:21.777Z,60.14
2024-05-09T22:47:48.792Z,58.56
2024-05-09T22:50:22.382Z,57.96
2024-05-09T22:52:53.033Z,59.30
2024-05-09T22:55:19.608Z,62.86
2024-05-09T22:57:46.252Z,64.47
2024-05-09T23:00:15.976Z,63.27
2024-05-09T23:02:43.087Z,61.73
2024-05-09T23:05:09.972Z,60.69
2024-05-09T23:07:36.634Z,60.10
2024-05-09T23:10:05.433Z,58.22
2024-05-09T23:12:35.203Z,57.70
2024-05-09T23:15:01.708Z,59.35
2024-05-09T23:17:28.189Z,63.11
2024-05-09T23:19:54.768Z,65.24
2024-05-09T23:22:21.370Z,63.77
2024-05-09T23:24:47.951Z,62.51
2024-05-09T23:27:14.709Z,61.05
2024-05-09T23:29:41.238Z,60.01
2024-05-09T23:32:09.235Z,58.19
2024-05-09T23:34:35.906Z,59.16
2024-05-09T23:37:02.690Z,60.91
2024-05-09T23:39:29.232Z,64.54
2024-05-09T23:41:55.739Z,65.79
2024-05-09T23:44:22.195Z,64.45
2024-05-09T23:46:48.758Z,62.81
2024-05-09T23:49:15.559Z,61.70
2024-05-09T23:51:42.107Z,60.92
2024-05-09T23:54:08.926Z,60.26
2024-05-09T23:56:35.427Z,58.76
2024-05-09T23:59:01.864Z,58.18
